Time;durP1;ratioP1;P1;durP2;ratioP2;P2;SDS_P1;SDS_P2;PMS_P1;PMS_P2;Temp;Humidity;BMP_temperature;BMP_pressure;BME280_temperature;BME280_humidity;BME280_pressure;Samples;Min_cycle;Max_cycle;Signal;HPM_P1;HPM_P2
2022/08/03 00:02:18;;;;;;;7.10;4.28;;;;;;;-148.88;72.15;74747.53;4996517;28;20482;-84
2022/08/03 00:04:44;;;;;;;8.27;4.32;;;;;;;-148.88;72.22;74749.56;4995260;28;20029;-84
2022/08/03 00:07:09;;;;;;;8.45;4.40;;;;;;;-148.88;72.82;74753.63;4996581;28;20026;-84
2022/08/03 00:09:34;;;;;;;7.03;4.90;;;;;;;-148.88;73.14;74753.63;4995654;28;20030;-84
2022/08/03 00:12:00;;;;;;;6.88;4.60;;;;;;;-148.88;73.18;74749.56;4996911;28;20113;-84
2022/08/03 00:14:25;;;;;;;8.88;4.45;;;;;;;-148.88;73.52;74753.63;4994993;28;20030;-84
2022/08/03 00:16:50;;;;;;;8.00;4.93;;;;;;;-148.88;73.37;74749.56;4995204;28;20030;-84
2022/08/03 00:19:16;;;;;;;7.55;4.60;;;;;;;-148.88;73.71;74757.69;4996477;28;20023;-84
2022/08/03 00:21:41;;;;;;;7.18;4.95;;;;;;;-148.88;73.92;74757.69;4996254;28;20026;-84
2022/08/03 00:24:06;;;;;;;7.30;4.90;;;;;;;-148.88;74.18;74761.75;4996239;28;20453;-84
2022/08/03 00:26:31;;;;;;;7.40;5.25;;;;;;;-148.88;74.55;74765.81;4996650;28;20021;-84
2022/08/03 00:28:57;;;;;;;5.45;4.47;;;;;;;-148.88;74.51;74771.91;4995129;28;20065;-84
2022/08/03 00:31:22;;;;;;;6.55;5.13;;;;;;;-148.88;74.98;74775.97;4994801;28;20029;-84
2022/08/03 00:33:47;;;;;;;8.43;5.03;;;;;;;-148.88;75.26;74778.00;4994754;28;20037;-84
2022/08/03 00:36:13;;;;;;;8.13;4.63;;;;;;;-148.88;75.30;74775.97;4995421;28;20026;-85
2022/08/03 00:38:38;;;;;;;6.63;4.85;;;;;;;-148.88;75.49;74780.03;4995836;28;20481;-85
2022/08/03 00:41:03;;;;;;;7.70;4.95;;;;;;;-148.88;75.37;74790.19;4994578;28;20049;-84
2022/08/03 00:43:28;;;;;;;8.43;5.03;;;;;;;-148.88;75.69;74794.25;4995783;28;20060;-84
2022/08/03 00:45:54;;;;;;;6.20;5.07;;;;;;;-148.88;76.10;74792.22;4995678;28;20061;-84
2022/08/03 00:48:19;;;;;;;6.75;4.70;;;;;;;-148.88;75.97;74794.25;5114366;23;20097;-85
2022/08/03 00:50:46;;;;;;;5.63;4.53;;;;;;;-148.88;75.92;74794.25;4998487;28;20124;-84
2022/08/03 00:53:12;;;;;;;6.65;4.45;;;;;;;-148.88;76.67;74802.38;4997331;28;20022;-84
2022/08/03 00:55:38;;;;;;;6.00;4.75;;;;;;;-148.88;76.62;74800.34;4995063;28;20026;-84
2022/08/03 00:58:05;;;;;;;6.32;5.18;;;;;;;-148.88;76.99;74806.44;4995364;28;20543;-84
2022/08/03 01:00:31;;;;;;;7.97;5.13;;;;;;;-148.88;77.79;74814.53;4995499;28;20033;-85
2022/08/03 01:02:57;;;;;;;8.98;5.28;;;;;;;-148.88;77.61;74826.72;4996789;28;20030;-85
2022/08/03 01:05:22;;;;;;;6.50;4.90;;;;;;;-148.88;77.78;74818.59;4995995;28;20114;-85
2022/08/03 01:08:09;;;;;;;5.70;4.93;;;;;;;-148.88;77.96;74824.69;4996739;28;20481;-85
2022/08/03 01:10:50;;;;;;;7.03;5.25;;;;;;;-148.88;78.53;74834.84;4995979;28;20037;-83
2022/08/03 01:13:44;;;;;;;8.63;5.05;;;;;;;-148.88;78.77;74834.84;4996186;28;20425;-85
2022/08/03 01:16:27;;;;;;;5.93;4.97;;;;;;;-148.88;78.77;74830.78;4996251;28;20034;-83
2022/08/03 01:19:11;;;;;;;6.07;5.27;;;;;;;-148.88;78.94;74849.06;4996885;28;20040;-84
2022/08/03 01:22:03;;;;;;;7.47;5.35;;;;;;;-148.88;79.71;74851.09;4997059;28;20026;-85
2022/08/03 01:24:57;;;;;;;6.97;5.50;;;;;;;-148.88;80.42;74863.28;4997273;28;20029;-86
2022/08/03 01:27:41;;;;;;;;;;;;;;;-148.88;80.60;74863.28;4997560;28;20508;-85
2022/08/03 01:30:08;;;;;;;6.13;5.35;;;;;;;-148.88;80.29;74869.38;4996408;28;20062;-87
2022/08/03 01:32:38;;;;;;;5.68;5.07;;;;;;;-148.88;80.90;74859.22;4996063;28;20034;-86
2022/08/03 01:35:07;;;;;;;8.13;6.18;;;;;;;-148.88;81.46;74871.41;4994644;28;20113;-86
2022/08/03 01:37:40;;;;;;;6.38;5.28;;;;;;;-148.88;81.75;74871.41;4994814;28;20022;-86
2022/08/03 01:40:06;;;;;;;7.63;5.38;;;;;;;-148.88;81.28;74871.41;4994955;28;20033;-87
2022/08/03 01:42:33;;;;;;;6.75;5.30;;;;;;;-148.88;81.40;74877.50;4996779;28;20030;-86
2022/08/03 01:45:00;;;;;;;6.63;5.55;;;;;;;-148.88;81.68;74879.53;4995390;28;20026;-86
2022/08/03 01:47:26;;;;;;;7.13;5.43;;;;;;;-148.88;82.25;74883.59;4994828;28;20033;-86
2022/08/03 01:49:54;;;;;;;7.57;5.38;;;;;;;-148.88;82.47;74893.75;4995349;28;20026;-86
2022/08/03 01:52:20;;;;;;;7.75;5.25;;;;;;;-148.88;82.24;74891.72;4995864;28;20029;-86
2022/08/03 01:54:48;;;;;;;8.85;6.13;;;;;;;-148.88;82.45;74895.78;4995196;28;20026;-84
2022/08/03 01:57:15;;;;;;;7.40;6.10;;;;;;;-148.88;82.88;74903.91;4995847;28;20019;-85
2022/08/03 01:59:42;;;;;;;9.85;6.30;;;;;;;-148.88;83.47;74907.97;4995803;28;20034;-85
2022/08/03 02:02:12;;;;;;;6.70;5.95;;;;;;;-148.88;83.44;74907.97;4997210;28;20481;-85
2022/08/03 02:04:39;;;;;;;8.32;5.57;;;;;;;-148.88;83.50;74907.97;4998303;28;20034;-85
2022/08/03 02:07:06;;;;;;;6.95;5.68;;;;;;;-148.88;83.75;74907.97;4995768;28;20029;-85
2022/08/03 02:09:33;;;;;;;8.75;5.95;;;;;;;-148.88;83.70;74907.97;4996844;28;20018;-85
2022/08/03 02:11:59;;;;;;;7.03;5.75;;;;;;;-148.88;84.09;74912.03;4996444;28;20026;-85
2022/08/03 02:14:26;;;;;;;7.28;5.80;;;;;;;-148.88;84.39;74914.06;4996059;28;20113;-84
2022/08/03 02:16:53;;;;;;;11.10;6.60;;;;;;;-148.88;84.36;74922.19;4993804;28;20026;-83
2022/08/03 02:19:20;;;;;;;8.23;6.30;;;;;;;-148.88;84.98;74926.25;4995864;28;20034;-85
2022/08/03 02:21:49;;;;;;;6.68;5.85;;;;;;;-148.88;85.71;74924.22;4996527;28;20034;-84
2022/08/03 02:24:15;;;;;;;9.45;6.25;;;;;;;-148.88;85.42;74926.25;4995315;28;20029;-85
2022/08/03 02:26:45;;;;;;;8.55;6.55;;;;;;;-148.88;85.48;74932.34;4995713;28;20026;-84
2022/08/03 02:29:17;;;;;;;8.35;5.97;;;;;;;-148.88;85.58;74934.38;4997729;28;20109;-84
2022/08/03 02:31:45;;;;;;;8.70;6.40;;;;;;;-148.88;85.98;74944.53;4996270;28;20076;-85
2022/08/03 02:34:13;;;;;;;9.43;6.70;;;;;;;-148.88;86.87;74956.69;4996823;28;20058;-85
2022/08/03 02:36:41;;;;;;;7.15;6.00;;;;;;;-148.88;88.18;74966.84;4996031;28;20481;-85
2022/08/03 02:39:12;;;;;;;9.25;6.65;;;;;;;-148.88;89.06;74970.91;5002046;28;20420;-85
2022/08/03 02:41:43;;;;;;;7.45;6.07;;;;;;;-148.88;88.34;74968.88;4997418;28;20109;-84
2022/08/03 02:44:11;;;;;;;8.63;7.60;;;;;;;-148.88;87.80;74972.94;4995836;28;20573;-85
2022/08/03 02:46:40;;;;;;;8.25;7.18;;;;;;;-148.88;88.22;74962.78;4996618;28;20096;-85
2022/08/03 02:49:07;;;;;;;9.40;7.22;;;;;;;-148.88;88.21;74968.88;4995205;28;20034;-85
2022/08/03 02:51:35;;;;;;;9.77;7.75;;;;;;;-148.88;88.42;74972.94;4997131;28;20541;-85
2022/08/03 02:54:02;;;;;;;9.93;7.50;;;;;;;-148.88;88.75;74968.88;4993870;28;20034;-84
2022/08/03 02:56:28;;;;;;;9.50;7.38;;;;;;;-148.88;88.83;74974.97;4994629;28;20022;-84
2022/08/03 02:58:56;;;;;;;11.20;7.45;;;;;;;-148.88;88.67;74974.97;4996673;28;20062;-85
2022/08/03 03:01:24;;;;;;;11.00;8.02;;;;;;;-148.88;89.12;74977.00;4997652;28;20037;-85
2022/08/03 03:03:50;;;;;;;8.68;7.57;;;;;;;-148.88;89.51;74983.09;4997939;28;20370;-85
2022/08/03 03:06:18;;;;;;;8.20;7.40;;;;;;;-148.88;89.56;74985.13;4999794;28;20061;-85
2022/08/03 03:08:45;;;;;;;8.65;7.68;;;;;;;-148.88;89.97;74987.16;4999888;28;20026;-84
2022/08/03 03:11:12;;;;;;;8.18;7.00;;;;;;;-148.88;89.94;74989.19;5002253;28;20480;-85
2022/08/03 03:13:40;;;;;;;11.57;8.25;;;;;;;-148.88;89.65;74997.31;5003192;28;20395;-84
2022/08/03 03:16:06;;;;;;;8.52;7.45;;;;;;;-148.88;89.77;74997.31;5000544;28;20495;-84
2022/08/03 03:18:33;;;;;;;11.02;8.02;;;;;;;-148.88;90.28;75003.41;4999787;28;20035;-85
2022/08/03 03:21:01;;;;;;;10.23;7.38;;;;;;;-148.88;90.26;75011.53;4999493;28;20045;-84
2022/08/03 03:23:27;;;;;;;8.35;7.22;;;;;;;-148.88;90.23;75005.44;4998300;28;20086;-85
2022/08/03 03:25:55;;;;;;;9.27;7.40;;;;;;;-148.88;90.70;75007.47;5001094;28;20058;-85
2022/08/03 03:28:24;;;;;;;10.40;8.27;;;;;;;-148.88;91.09;75011.53;5001074;28;20082;-85
2022/08/03 03:30:49;;;;;;;9.20;7.85;;;;;;;-148.88;91.07;75017.63;5000871;28;20026;-85
2022/08/03 03:33:15;;;;;;;11.07;8.07;;;;;;;-148.88;91.35;75021.69;5000282;28;20066;-84
2022/08/03 03:35:42;;;;;;;8.63;7.72;;;;;;;-148.88;91.54;75021.69;4996747;28;20552;-85
2022/08/03 03:38:08;;;;;;;10.70;8.23;;;;;;;-148.88;91.97;75029.81;4996639;28;20026;-85
2022/08/03 03:40:35;;;;;;;8.95;7.20;;;;;;;-148.88;91.86;75029.81;4998960;28;20372;-83
2022/08/03 03:43:00;;;;;;;9.88;7.57;;;;;;;-148.88;92.00;75031.84;4998719;28;20084;-84
2022/08/03 03:45:26;;;;;;;11.02;7.68;;;;;;;-148.88;92.25;75033.88;4999866;28;20022;-86
2022/08/03 03:47:52;;;;;;;8.82;7.88;;;;;;;-148.88;92.21;75029.81;5000255;28;20069;-85
2022/08/03 03:50:18;;;;;;;8.98;7.55;;;;;;;-148.88;92.34;75037.94;5001032;28;20555;-85
2022/08/03 03:52:43;;;;;;;8.43;7.57;;;;;;;-148.88;92.36;75037.94;4999289;28;20378;-85
2022/08/03 03:55:09;;;;;;;8.98;6.75;;;;;;;-148.88;91.98;75035.91;4998395;28;20029;-86
2022/08/03 03:57:34;;;;;;;12.27;7.53;;;;;;;-148.88;92.19;75033.88;4997656;28;20024;-85
2022/08/03 03:59:59;;;;;;;8.10;7.25;;;;;;;-148.88;92.92;75035.91;4995699;28;20400;-86
2022/08/03 04:02:25;;;;;;;10.60;7.03;;;;;;;-148.88;92.49;75033.88;4997818;28;20081;-85
2022/08/03 04:13:13;;;;;;;7.72;6.88;;;;;;;-148.88;93.06;75046.06;4997543;28;20044;-86
2022/08/03 04:15:39;;;;;;;7.45;6.65;;;;;;;-148.88;92.79;75046.06;4996668;28;20026;-85
2022/08/03 04:18:08;;;;;;;8.50;7.15;;;;;;;-148.88;92.71;75046.06;4996379;28;20033;-85
2022/08/03 04:20:35;;;;;;;11.77;7.13;;;;;;;-148.88;92.81;75044.03;4995585;28;20476;-84
2022/08/03 04:23:02;;;;;;;8.93;7.13;;;;;;;-148.88;93.09;75042.00;4996959;28;20528;-86
2022/08/03 04:25:31;;;;;;;8.88;7.30;;;;;;;-148.88;93.26;75046.06;4996613;28;20026;-86
2022/08/03 04:27:59;;;;;;;8.50;6.97;;;;;;;-148.88;93.42;75048.09;4996385;28;20077;-85
2022/08/03 04:30:30;;;;;;;10.35;7.07;;;;;;;-148.88;93.55;75050.13;4996281;28;20030;-85
2022/08/03 04:32:56;;;;;;;9.13;8.05;;;;;;;-148.88;93.94;75060.28;4995498;28;20057;-84
2022/08/03 04:35:24;;;;;;;8.93;7.72;;;;;;;-148.88;93.83;75050.13;4998085;28;20378;-84
2022/08/03 04:37:52;;;;;;;8.65;7.00;;;;;;;-148.88;93.87;75052.16;4996641;28;20400;-85
2022/08/03 04:40:26;;;;;;;9.35;7.07;;;;;;;-148.88;93.80;75052.16;5014650;28;20026;-84
2022/08/03 04:42:55;;;;;;;8.82;7.65;;;;;;;-148.88;93.72;75048.09;5001604;28;20473;-85
2022/08/03 04:45:21;;;;;;;8.85;7.95;;;;;;;-148.88;93.97;75050.13;4996302;28;20488;-85
2022/08/03 04:47:47;;;;;;;9.13;8.02;;;;;;;-148.88;93.82;75052.16;4996289;28;20029;-86
2022/08/03 04:50:14;;;;;;;13.00;7.88;;;;;;;-148.88;93.88;75056.22;4997109;28;20022;-86
2022/08/03 04:52:39;;;;;;;12.00;8.70;;;;;;;-148.88;94.50;75058.25;5009757;28;20043;-87
2022/08/03 04:55:05;;;;;;;8.45;7.57;;;;;;;-148.88;93.99;75052.16;5015176;28;20091;-86
2022/08/03 04:57:30;;;;;;;9.93;7.60;;;;;;;-148.88;94.15;75048.09;5015725;28;20025;-89
2022/08/03 04:59:56;;;;;;;8.43;7.40;;;;;;;-148.88;94.44;75050.13;5015445;28;20030;-88
2022/08/03 05:02:22;;;;;;;8.43;7.30;;;;;;;-148.88;94.45;75046.06;5014101;28;20052;-87
2022/08/03 05:04:48;;;;;;;11.07;7.70;;;;;;;-148.88;94.36;75050.13;5015395;28;20033;-88
2022/08/03 05:07:15;;;;;;;10.18;6.75;;;;;;;-148.88;93.98;75044.03;5013877;28;20116;-89
2022/08/03 05:09:43;;;;;;;8.85;7.10;;;;;;;-148.88;93.92;75046.06;5015100;28;20033;-88
2022/08/03 05:12:09;;;;;;;9.52;7.18;;;;;;;-148.88;94.24;75042.00;5014113;28;20116;-87
2022/08/03 05:14:37;;;;;;;9.65;7.20;;;;;;;-148.88;94.29;75035.91;5014153;28;20109;-87
2022/08/03 05:17:03;;;;;;;8.15;6.97;;;;;;;-148.88;94.28;75033.88;5013923;28;20033;-87
2022/08/03 05:19:29;;;;;;;8.20;7.28;;;;;;;-148.88;94.24;75031.84;5015370;28;20476;-87
2022/08/03 05:21:54;;;;;;;8.68;7.18;;;;;;;-148.88;94.02;75025.75;5014492;28;20072;-87
2022/08/03 05:24:20;;;;;;;7.60;6.72;;;;;;;-148.88;94.26;75023.72;5014268;28;20391;-87
2022/08/03 05:26:45;;;;;;;7.57;6.72;;;;;;;-148.88;94.13;75017.63;5017012;28;20025;-85
2022/08/03 05:29:10;;;;;;;9.13;6.45;;;;;;;-148.88;94.34;75007.47;5014938;28;20083;-88
2022/08/03 05:31:36;;;;;;;6.85;6.13;;;;;;;-148.88;94.40;75011.53;5014158;28;20559;-88
2022/08/03 05:34:01;;;;;;;10.55;6.60;;;;;;;-148.88;94.56;75001.38;5015319;28;20038;-89
2022/08/03 05:36:26;;;;;;;8.00;6.70;;;;;;;-148.88;94.35;74989.19;5014027;28;20021;-88
2022/08/03 05:38:52;;;;;;;8.15;6.15;;;;;;;-148.88;94.34;74977.00;5014065;28;20036;-86
2022/08/03 05:41:18;;;;;;;8.65;6.60;;;;;;;-148.88;94.28;74968.88;5008391;28;20060;-87
2022/08/03 05:43:43;;;;;;;9.68;5.88;;;;;;;-148.88;94.02;74956.69;4994956;28;20018;-90
2022/08/03 05:46:09;;;;;;;7.05;6.00;;;;;;;-148.88;93.66;74950.59;4994544;28;20138;-88
2022/08/03 05:48:34;;;;;;;7.30;6.45;;;;;;;-148.88;93.24;74934.38;4994814;28;20041;-87
2022/08/03 05:51:00;;;;;;;8.80;5.57;;;;;;;-148.88;93.12;74924.22;4995006;28;20092;-84
2022/08/03 05:53:25;;;;;;;6.40;5.43;;;;;;;-148.88;92.88;74914.06;4996543;28;20030;-86
2022/08/03 05:55:50;;;;;;;6.15;5.30;;;;;;;-148.88;92.85;74903.91;4995469;28;20396;-85
2022/08/03 05:58:15;;;;;;;9.23;5.15;;;;;;;-148.88;92.02;74887.66;4996793;28;20030;-85
2022/08/03 06:00:41;;;;;;;7.90;5.22;;;;;;;-148.88;90.92;74871.41;4996057;28;20032;-85
2022/08/03 06:03:06;;;;;;;8.60;5.30;;;;;;;-148.88;89.92;74859.22;4995847;28;20034;-86
2022/08/03 06:05:35;;;;;;;6.55;5.00;;;;;;;-148.88;89.09;74847.03;4996130;28;20121;-85
2022/08/03 06:08:01;;;;;;;8.30;4.90;;;;;;;-148.88;88.96;74838.91;4994234;28;20030;-85
2022/08/03 06:10:26;;;;;;;6.60;4.78;;;;;;;-148.88;88.81;74830.78;4995851;28;20093;-86
2022/08/03 06:12:51;;;;;;;5.43;4.38;;;;;;;-148.88;88.08;74826.72;4996277;28;20030;-86
2022/08/03 06:15:17;;;;;;;6.32;4.88;;;;;;;-148.88;88.49;74818.59;4994291;28;20397;-86
2022/08/03 06:17:47;;;;;;;7.57;4.93;;;;;;;-148.88;89.44;74800.34;4997091;28;20037;-85
2022/08/03 06:20:15;;;;;;;8.80;4.80;;;;;;;-148.88;89.09;74790.19;5013735;28;20069;-86
2022/08/03 06:22:41;;;;;;;7.57;4.68;;;;;;;-148.88;88.72;74773.94;4995328;28;20041;-86
2022/08/03 06:25:06;;;;;;;6.97;4.68;;;;;;;-148.88;88.66;74759.72;4994339;28;20030;-86
2022/08/03 06:27:32;;;;;;;7.63;4.72;;;;;;;-148.88;88.50;74745.50;4993260;28;20034;-85
2022/08/03 06:29:57;;;;;;;6.93;4.25;;;;;;;-148.88;88.29;74741.44;4992764;28;20022;-85
2022/08/03 06:32:22;;;;;;;6.35;4.70;;;;;;;-148.88;88.21;74737.38;4994527;28;20031;-85
2022/08/03 06:34:48;;;;;;;6.32;4.50;;;;;;;-148.88;88.20;74729.25;4993402;28;20397;-87
2022/08/03 06:37:13;;;;;;;6.05;3.80;;;;;;;-148.88;85.88;74717.06;4993702;28;20032;-86
2022/08/03 06:39:38;;;;;;;7.07;3.75;;;;;;;-148.88;85.08;74704.88;4994242;28;20393;-86
2022/08/03 06:42:04;;;;;;;8.15;3.97;;;;;;;-148.88;85.32;74678.50;4992869;28;20022;-87
2022/08/03 06:44:29;;;;;;;8.75;3.72;;;;;;;-148.88;82.14;74656.16;4995455;28;20105;-87
2022/08/03 06:46:54;;;;;;;7.55;3.70;;;;;;;-148.88;82.15;74641.94;4992322;28;20109;-88
2022/08/03 06:49:20;;;;;;;5.05;3.25;;;;;;;-148.88;80.75;74631.78;4995069;28;20532;-88
2022/08/03 06:51:45;;;;;;;7.07;4.10;;;;;;;-148.88;79.24;74615.53;4993790;28;20096;-89
2022/08/03 06:54:11;;;;;;;6.32;3.80;;;;;;;-148.88;78.92;74601.31;4994936;28;20034;-88
2022/08/03 06:56:36;;;;;;;4.72;3.47;;;;;;;-148.88;76.27;74566.81;4993166;28;20458;-87
2022/08/03 06:59:02;;;;;;;6.50;3.38;;;;;;;-148.88;76.59;74566.81;4992883;28;20026;-88
2022/08/03 07:01:27;;;;;;;5.28;2.95;;;;;;;-148.88;72.53;74518.06;4992726;28;20019;-86
2022/08/03 07:03:53;;;;;;;6.68;3.00;;;;;;;-148.88;73.44;74522.13;4994070;28;20022;-85
2022/08/03 07:06:19;;;;;;;7.80;3.15;;;;;;;-148.88;71.48;74499.81;4993117;28;20480;-86
2022/08/03 07:08:44;;;;;;;5.05;2.45;;;;;;;-148.88;70.73;74479.50;4993081;28;20092;-86
2022/08/03 07:11:09;;;;;;;5.15;2.70;;;;;;;-148.88;70.74;74471.38;4994531;28;20030;-86
2022/08/03 07:13:35;;;;;;;4.55;2.67;;;;;;;-148.88;70.02;74465.28;4993941;28;20033;-88
2022/08/03 07:16:00;;;;;;;4.55;2.58;;;;;;;-148.88;69.41;74444.97;4994589;28;20030;-89
2022/08/03 07:18:25;;;;;;;6.97;2.90;;;;;;;-148.88;68.69;74436.84;5003763;28;20030;-88
2022/08/03 07:20:51;;;;;;;5.85;2.60;;;;;;;-148.88;69.11;74440.91;5004812;28;20053;-87
2022/08/03 07:23:16;;;;;;;5.28;2.70;;;;;;;-148.88;68.55;74432.78;4992655;28;20022;-85
2022/08/03 07:25:41;;;;;;;7.05;2.65;;;;;;;-148.88;68.98;74414.50;4993586;28;20026;-86
2022/08/03 07:28:07;;;;;;;4.93;2.45;;;;;;;-148.88;68.07;74388.13;4993581;28;20054;-88
2022/08/03 07:30:32;;;;;;;5.88;2.70;;;;;;;-148.88;66.99;74400.31;4993851;28;20080;-86
2022/08/03 07:32:58;;;;;;;5.07;2.53;;;;;;;-148.88;67.37;74394.22;4993892;28;20026;-85
2022/08/03 07:35:23;;;;;;;4.50;2.28;;;;;;;-148.88;67.56;74380.00;4993873;28;20022;-85
2022/08/03 07:37:48;;;;;;;4.90;2.30;;;;;;;-148.88;66.16;74371.88;4993390;28;20053;-85
2022/08/03 07:40:14;;;;;;;6.78;2.33;;;;;;;-148.88;65.06;74343.44;4993607;28;20396;-86
2022/08/03 07:42:39;;;;;;;9.60;2.42;;;;;;;-148.88;63.54;74298.78;4993811;28;20026;-86
2022/08/03 07:45:05;;;;;;;5.35;2.05;;;;;;;-148.88;61.27;74296.75;4994045;28;20030;-85
2022/08/03 07:47:30;;;;;;;6.43;1.88;;;;;;;-148.88;60.84;74254.09;4997386;28;20481;-88
2022/08/03 07:49:56;;;;;;;8.63;2.20;;;;;;;-148.88;60.80;74260.19;4997422;28;20022;-85
2022/08/03 07:55:06;;;;;;;3.58;1.90;;;;;;;-148.88;59.67;74254.09;4997437;28;20037;-88
2022/08/03 07:57:32;;;;;;;4.05;1.77;;;;;;;-148.88;61.59;74250.03;4996027;28;20049;-86
2022/08/03 07:59:57;;;;;;;4.95;2.00;;;;;;;-148.88;59.54;74239.91;4997275;28;20042;-86
2022/08/03 08:02:23;;;;;;;4.65;2.00;;;;;;;-148.88;59.63;74227.72;4995729;28;20027;-88
2022/08/03 08:04:48;;;;;;;5.25;2.00;;;;;;;-148.88;58.65;74219.59;4996273;28;20456;-87
2022/08/03 08:07:14;;;;;;;4.43;2.03;;;;;;;-148.88;58.36;74201.31;4996417;28;20528;-87
2022/08/03 08:09:39;;;;;;;3.15;1.83;;;;;;;-148.88;58.17;74187.09;4997253;28;20026;-87
2022/08/03 08:12:06;;;;;;;4.20;1.65;;;;;;;-148.88;56.62;74156.66;4997835;28;20027;-89
2022/08/03 08:14:33;;;;;;;4.40;1.70;;;;;;;-148.88;56.11;74142.44;4996889;28;20037;-89
2022/08/03 08:17:01;;;;;;;3.15;2.13;;;;;;;-148.88;55.88;74134.31;4998857;28;20029;-87
2022/08/03 08:19:26;;;;;;;6.22;2.03;;;;;;;-148.88;55.90;74120.09;4997658;28;20088;-88
2022/08/03 08:21:51;;;;;;;3.58;2.10;;;;;;;-148.88;54.58;74120.09;4996233;28;20034;-87
2022/08/03 08:24:17;;;;;;;3.40;2.13;;;;;;;-148.88;55.89;74114.00;4995793;28;20465;-88
2022/08/03 08:26:42;;;;;;;5.68;1.80;;;;;;;-148.88;55.99;74101.81;4998290;28;20029;-89
2022/08/03 08:29:08;;;;;;;4.45;1.70;;;;;;;-148.88;55.01;74087.63;5000858;28;20029;-89
2022/08/03 08:31:33;;;;;;;5.72;2.00;;;;;;;-148.88;53.64;74073.41;5016964;28;20092;-87
2022/08/03 08:34:04;;;;;;;4.25;1.90;;;;;;;-148.88;53.23;74047.00;5016815;28;20034;-88
2022/08/03 08:36:36;;;;;;;5.65;1.95;;;;;;;-148.88;53.41;74034.81;5015078;28;20468;-90
2022/08/03 08:39:01;;;;;;;4.63;2.08;;;;;;;-148.88;52.83;74032.78;5015681;28;20080;-89
2022/08/03 08:41:27;;;;;;;4.35;2.05;;;;;;;-148.88;52.50;74030.75;5016372;28;20026;-88
2022/08/03 08:43:56;;;;;;;3.75;1.65;;;;;;;-148.88;52.83;74022.66;5016220;28;20034;-86
2022/08/03 08:46:21;;;;;;;5.63;2.00;;;;;;;-148.88;52.50;73990.16;5016373;28;20045;-90
2022/08/03 08:48:48;;;;;;;4.43;1.80;;;;;;;-148.88;52.09;74000.31;5018449;28;20400;-87
2022/08/03 08:51:18;;;;;;;3.83;2.17;;;;;;;-148.88;51.83;73986.09;5018870;28;20006;-86
2022/08/03 08:53:46;;;;;;;7.20;1.85;;;;;;;-148.88;51.68;73988.13;5019300;28;20026;-86
2022/08/03 08:56:16;;;;;;;3.53;1.83;;;;;;;-148.88;51.43;73943.47;5016351;28;20030;-86
2022/08/03 08:58:57;;;;;;;3.63;2.00;;;;;;;-148.88;50.43;73941.44;5016583;28;20057;-88
2022/08/03 09:01:23;;;;;;;6.07;1.70;;;;;;;-148.88;50.82;73941.44;5020127;28;20025;-91
2022/08/03 09:03:48;;;;;;;7.20;1.50;;;;;;;-148.88;51.15;73919.09;5017050;28;20037;-86
2022/08/03 09:06:14;;;;;;;3.85;1.73;;;;;;;-148.88;49.71;73923.16;5016197;28;20026;-86
2022/08/03 09:08:43;;;;;;;4.75;2.00;;;;;;;-148.88;50.84;73902.84;5016994;28;20172;-88
2022/08/03 09:11:08;;;;;;;4.97;2.42;;;;;;;-148.88;52.18;73906.91;5015363;28;20029;-87
2022/08/03 09:13:34;;;;;;;3.35;2.03;;;;;;;-148.88;50.19;73902.84;5016500;28;20025;-88
2022/08/03 09:16:15;;;;;;;3.13;1.88;;;;;;;-148.88;49.87;73878.50;5017159;28;20080;-86
2022/08/03 09:18:50;;;;;;;5.28;2.10;;;;;;;-148.88;49.90;73888.66;5015741;28;20025;-89
2022/08/03 09:21:25;;;;;;;8.68;2.30;;;;;;;-148.88;50.50;73896.75;5016036;28;20022;-88
2022/08/03 09:23:53;;;;;;;4.55;2.45;;;;;;;-148.88;49.95;73872.41;5015705;28;20448;-84
2022/08/03 09:26:23;;;;;;;4.30;2.40;;;;;;;-148.88;49.05;73835.84;4998805;28;20401;-86
2022/08/03 09:29:06;;;;;;;4.28;2.20;;;;;;;-148.88;49.14;73835.84;4997851;28;20018;-88
2022/08/03 09:31:43;;;;;;;5.65;2.45;;;;;;;-148.88;48.63;73827.75;4996494;28;20033;-88
2022/08/03 09:34:19;;;;;;;8.05;2.50;;;;;;;-148.88;48.20;73815.56;4994734;28;20018;-88
2022/08/03 09:36:47;;;;;;;4.75;2.17;;;;;;;-148.88;47.95;73768.88;4994564;28;20034;-87
2022/08/03 09:39:31;;;;;;;5.13;2.20;;;;;;;-148.88;47.32;73776.97;4996081;28;20089;-85
2022/08/03 09:42:08;;;;;;;3.47;2.13;;;;;;;-148.88;47.04;73770.91;4994991;28;20026;-83
2022/08/03 09:44:35;;;;;;;5.72;2.33;;;;;;;-148.88;46.94;73746.53;4995390;28;20046;-87
2022/08/03 09:47:00;;;;;;;6.30;2.15;;;;;;;-148.88;46.79;73730.28;4995709;28;20026;-89
2022/08/03 09:49:26;;;;;;;3.70;2.08;;;;;;;-148.88;46.84;73734.34;4996200;28;20036;-88
2022/08/03 09:51:52;;;;;;;6.03;2.20;;;;;;;-148.88;47.76;73750.59;4996209;28;20161;-89
2022/08/03 09:54:30;;;;;;;5.97;2.35;;;;;;;-148.88;47.35;73746.53;4996150;28;20054;-89
2022/08/03 09:56:56;;;;;;;7.22;2.75;;;;;;;-148.88;46.89;73758.72;4996427;28;20038;-90
2022/08/03 09:59:30;;;;;;;8.43;3.00;;;;;;;-148.88;47.89;73722.16;4997331;28;20389;-90
2022/08/03 10:01:58;;;;;;;6.05;2.47;;;;;;;-148.88;47.23;73703.91;4997200;28;20085;-90
2022/08/03 10:04:24;;;;;;;4.43;2.70;;;;;;;-148.88;46.45;73675.47;5004287;28;20090;-90
2022/08/03 10:07:21;;;;;;;7.85;2.63;;;;;;;-148.88;46.23;73663.28;5003245;28;20037;-91
2022/08/03 10:10:19;;;;;;;5.35;2.50;;;;;;;-148.88;45.30;73638.94;5000547;28;20061;-91
2022/08/03 10:13:12;;;;;;;5.15;2.22;;;;;;;-148.88;45.13;73632.84;5000056;28;20026;-91
2022/08/03 10:15:49;;;;;;;4.88;2.28;;;;;;;-148.88;45.38;73616.59;4998834;28;20084;-85
2022/08/03 10:18:17;;;;;;;5.43;2.22;;;;;;;-148.88;44.31;73632.84;4997931;28;20050;-92
2022/08/03 10:24:29;;;;;;;6.88;2.13;;;;;;;-148.88;43.97;73616.59;5000807;28;20030;-90
2022/08/03 10:27:12;;;;;;;5.07;2.40;;;;;;;-148.88;43.62;73600.34;5000094;28;20027;-89
2022/08/03 10:29:41;;;;;;;6.80;2.35;;;;;;;-148.88;42.81;73600.34;4995748;28;20030;-89
2022/08/03 10:32:20;;;;;;;5.38;1.95;;;;;;;-148.88;43.10;73590.22;4999304;28;20112;-89
2022/08/03 10:34:52;;;;;;;7.05;1.92;;;;;;;-148.88;43.87;73555.69;5012876;28;20018;-91
2022/08/03 10:37:22;;;;;;;5.78;2.00;;;;;;;-148.88;42.31;73547.56;5016541;28;20053;-90
2022/08/03 10:40:21;;;;;;;6.47;1.90;;;;;;;-148.88;42.52;73523.22;5015051;28;20053;-89
2022/08/03 10:42:48;;;;;;;4.97;1.70;;;;;;;-148.88;40.62;73515.09;5003073;28;20474;-91
2022/08/03 10:45:26;;;;;;;3.65;1.70;;;;;;;-148.88;39.57;73486.69;4997787;28;20018;-90
2022/08/03 10:47:56;;;;;;;6.00;2.03;;;;;;;-148.88;40.11;73498.84;4995297;28;20030;-90
2022/08/03 10:50:23;;;;;;;6.13;2.42;;;;;;;-148.88;39.54;73486.69;4994618;28;20030;-88
2022/08/03 10:52:57;;;;;;;5.78;2.00;;;;;;;-148.88;40.13;73474.50;4995656;28;20108;-87
2022/08/03 10:58:35;;;;;;;4.47;1.92;;;;;;;-148.88;39.46;73470.44;5003563;28;20114;-93
2022/08/03 11:01:00;;;;;;;5.20;2.28;;;;;;;-148.88;42.16;73476.53;5017085;28;20472;-90
2022/08/03 11:03:25;;;;;;;4.30;1.77;;;;;;;-148.88;39.38;73468.41;5018627;28;20098;-92
2022/08/03 11:06:17;;;;;;;8.85;2.00;;;;;;;-148.88;40.61;73478.56;5025161;28;20050;-92
2022/08/03 11:08:44;;;;;;;7.78;2.33;;;;;;;-148.88;39.94;73504.94;5034057;28;20026;-88
2022/08/03 11:11:15;;;;;;;4.72;2.20;;;;;;;-148.88;40.43;73502.91;5033412;28;20075;-88
2022/08/03 11:13:58;;;;;;;7.93;2.63;;;;;;;-148.88;40.41;73452.16;5028740;28;21916;-89
2022/08/03 11:16:26;;;;;;;7.63;2.28;;;;;;;-148.88;40.00;73446.06;5014706;28;20030;-89
2022/08/03 11:19:03;;;;;;;4.82;2.10;;;;;;;-148.88;39.51;73452.16;5014525;28;20034;-88
2022/08/03 11:21:47;;;;;;;6.55;2.72;;;;;;;-148.88;39.38;73446.06;5017426;28;20031;-88
2022/08/03 11:24:42;;;;;;;5.78;1.90;;;;;;;-148.88;39.51;73401.41;5017025;28;20498;-88
2022/08/03 11:27:16;;;;;;;5.07;2.70;;;;;;;-148.88;39.05;73413.59;4979861;28;20050;-88
2022/08/03 11:30:06;;;;;;;6.35;2.50;;;;;;;-148.88;39.27;73385.19;4978757;28;20169;-89
2022/08/03 11:32:44;;;;;;;5.35;2.35;;;;;;;-148.88;39.56;73429.84;4978474;28;20023;-89
2022/08/03 11:35:44;;;;;;;6.68;2.17;;;;;;;-148.88;39.19;73407.50;4977654;28;20027;-89
2022/08/03 11:38:10;;;;;;;4.45;2.20;;;;;;;-148.88;38.48;73403.44;4977944;28;20023;-88
2022/08/03 11:40:53;;;;;;;6.47;2.10;;;;;;;-148.88;39.10;73411.56;4977481;28;20109;-89
2022/08/03 11:43:21;;;;;;;11.20;2.70;;;;;;;-148.88;39.92;73401.41;4977765;28;20036;-89